Time,TemperatureF,DewpointF,PressureIn,WindDirection,WindDirectionDegrees,WindSpeedMPH,WindSpeedGustMPH,Humidity,HourlyPrecipIn,Conditions,Clouds,dailyrainin,SoftwareType,DateUTC
2013-01-04 00:03:00,29.0,-99.9,30.67,WSW,248,37.0,43.0,-999,-99.99,,,-99.99,,2013-01-04 05:03:00,
2013-01-04 00:12:00,29.0,-99.9,29.97,WSW,248,37.0,43.0,-999,-99.99,,,-99.99,,2013-01-04 05:12:00,
2013-01-04 00:22:00,29.0,-99.9,29.97,WSW,248,37.0,43.0,-999,-99.99,,,-99.99,,2013-01-04 05:22:00,
2013-01-04 00:33:00,29.0,-99.9,30.67,WSW,251,34.0,0.0,-999,-99.99,,,-99.99,,2013-01-04 05:33:00,
2013-01-04 00:43:00,29.0,-99.9,29.97,WSW,251,34.0,0.0,-999,-99.99,,,-99.99,,2013-01-04 05:43:00,
2013-01-04 00:53:00,29.0,-99.9,30.67,WSW,251,34.0,0.0,-999,-99.99,,,-99.99,,2013-01-04 05:53:00,
2013-01-04 01:02:00,29.0,-99.9,30.64,SW,234,29.0,39.0,-999,-99.99,,,-99.99,,2013-01-04 06:02:00,
2013-01-04 01:12:00,29.0,-99.9,29.94,SW,234,29.0,39.0,-999,-99.99,,,-99.99,,2013-01-04 06:12:00,
2013-01-04 01:22:00,29.0,-99.9,29.97,WSW,251,34.0,0.0,-999,-99.99,,,-99.99,,2013-01-04 06:22:00,
2013-01-04 01:33:00,29.0,-99.9,30.61,SW,234,27.0,0.0,-999,-99.99,,,-99.99,,2013-01-04 06:33:00,
2013-01-04 01:43:00,29.0,-99.9,29.91,SW,234,27.0,0.0,-999,-99.99,,,-99.99,,2013-01-04 06:43:00,
2013-01-04 01:53:00,29.0,-99.9,30.61,WSW,242,33.0,41.0,-999,-99.99,,,-99.99,,2013-01-04 06:53:00,
2013-01-04 02:02:00,29.0,-99.9,30.60,SW,232,31.0,42.0,-999,-99.99,,,-99.99,,2013-01-04 07:02:00,
2013-01-04 02:12:00,29.0,-99.9,29.90,SW,232,31.0,42.0,-999,-99.99,,,-99.99,,2013-01-04 07:12:00,
2013-01-04 02:22:00,29.0,-99.9,29.90,SW,232,31.0,42.0,-999,-99.99,,,-99.99,,2013-01-04 07:22:00,
2013-01-04 02:32:00,29.0,-99.9,30.57,WSW,239,37.0,0.0,-999,-99.99,,,-99.99,,2013-01-04 07:32:00,
2013-01-04 02:43:00,29.0,-99.9,30.57,WSW,239,37.0,0.0,-999,-99.99,,,-99.99,,2013-01-04 07:43:00,
2013-01-04 02:53:00,29.0,-99.9,30.54,SW,232,30.0,41.0,-999,-99.99,,,-99.99,,2013-01-04 07:53:00,
2013-01-04 03:03:00,29.0,-99.9,30.55,WSW,239,37.0,50.0,-999,-99.99,,,-99.99,,2013-01-04 08:03:00,
2013-01-04 03:12:00,29.0,-99.9,29.86,WSW,239,37.0,50.0,-999,-99.99,,,-99.99,,2013-01-04 08:12:00,
2013-01-04 03:23:00,29.0,-99.9,29.86,WSW,239,37.0,50.0,-999,-99.99,,,-99.99,,2013-01-04 08:23:00,
2013-01-04 03:33:00,29.0,-99.9,30.57,WSW,239,36.0,0.0,-999,-99.99,,,-99.99,,2013-01-04 08:33:00,
2013-01-04 03:43:00,30.0,-99.9,30.57,WSW,243,40.0,41.0,-999,-99.99,,,-99.99,,2013-01-04 08:43:00,
2013-01-04 03:53:00,30.0,-99.9,29.87,WSW,243,40.0,41.0,-999,-99.99,,,-99.99,,2013-01-04 08:53:00,
2013-01-04 04:02:00,30.0,-99.9,30.57,WSW,244,37.0,50.0,-999,-99.99,,,-99.99,,2013-01-04 09:02:00,